Terminal Aerodrome Forecast
Issued by NWS Lake Charles, LA

Home | Current Version | Previous Version | Text Only | Print | Product List | Glossary On
Versions: 1 2 3 4 5 6 7 8 9 10 11 12 13
000
FTUS44 KLCH 281700
TAFLFT
TAF
KLFT 281723Z 2818/2918 30010KT P6SM SCT035
     FM282100 29012KT P6SM VCTS SCT040CB
     FM290400 32005KT P6SM BKN045
     FM291100 01005KT P6SM FEW040 BKN150=

USA.gov is the U.S. government's official web portal to all federal, state and local government web resources and services.